Time;durP1;ratioP1;P1;durP2;ratioP2;P2;SDS_P1;SDS_P2;PMS_P1;PMS_P2;Temp;Humidity;BMP_temperature;BMP_pressure;BME280_temperature;BME280_humidity;BME280_pressure;Samples;Min_cycle;Max_cycle;Signal;HPM_P1;HPM_P2
2021/07/12 00:00:25;;;;;;;8.58;7.87;;;;;;;21.77;65.95;98886.22;2292189;78;20905;-81
2021/07/12 00:03:27;;;;;;;10.20;8.80;;;;;;;21.78;66.00;98889.75;2269134;78;20900;-81
2021/07/12 00:06:28;;;;;;;7.78;7.17;;;;;;;21.80;65.73;98890.56;2292136;78;21370;-81
2021/07/12 00:09:29;;;;;;;34.05;30.70;;;;;;;21.84;64.88;98893.07;2291995;78;20951;-82
2021/07/12 00:12:30;;;;;;;11.90;10.68;;;;;;;21.72;63.52;98886.83;2292175;78;20881;-81
2021/07/12 00:15:31;;;;;;;9.95;8.30;;;;;;;21.45;63.86;98886.35;2292346;78;20940;-81
2021/07/12 00:18:32;;;;;;;9.38;8.55;;;;;;;21.08;63.06;98882.14;2292439;78;20953;-82
2021/07/12 00:21:33;;;;;;;14.35;8.80;;;;;;;20.19;63.44;98873.10;2292333;78;20904;-81
2021/07/12 00:24:34;;;;;;;9.88;8.98;;;;;;;19.43;64.92;98871.43;2291806;78;21007;-81
2021/07/12 00:27:35;;;;;;;9.90;8.90;;;;;;;18.84;66.25;98869.62;2293073;78;20940;-82
2021/07/12 00:30:36;;;;;;;25.50;22.02;;;;;;;18.43;67.54;98869.98;2292647;78;20949;-82
2021/07/12 00:33:37;;;;;;;48.25;43.20;;;;;;;18.44;71.52;98873.91;2292106;78;20909;-82
2021/07/12 00:36:38;;;;;;;52.60;46.92;;;;;;;19.34;71.64;98869.86;2292290;78;20977;-83
2021/07/12 00:39:39;;;;;;;34.48;30.25;;;;;;;20.01;70.42;98870.94;2292234;78;20880;-82
2021/07/12 00:42:40;;;;;;;30.45;26.95;;;;;;;20.49;69.29;98873.22;2292254;78;20943;-83
2021/07/12 00:45:40;;;;;;;44.23;39.42;;;;;;;20.81;68.20;98878.52;2292063;78;20936;-82
2021/07/12 00:48:41;;;;;;;23.87;21.45;;;;;;;21.06;67.37;98876.47;2291938;78;21031;-83
2021/07/12 00:51:42;;;;;;;19.30;17.52;;;;;;;21.20;66.77;98883.09;2292054;78;20915;-83
2021/07/12 00:54:43;;;;;;;16.52;15.05;;;;;;;21.28;66.28;98877.12;2291836;78;20995;-82
2021/07/12 00:57:44;;;;;;;18.40;16.52;;;;;;;21.37;65.77;98876.43;2292404;78;20908;-82
2021/07/12 01:00:45;;;;;;;17.15;15.63;;;;;;;21.39;65.51;98883.89;2292261;78;20933;-82
2021/07/12 01:03:46;;;;;;;13.45;10.93;;;;;;;21.35;65.07;98882.25;2292203;78;20912;-81
2021/07/12 01:06:47;;;;;;;10.15;9.15;;;;;;;21.07;64.02;98877.75;2291755;78;21036;-80
2021/07/12 01:09:48;;;;;;;9.68;8.73;;;;;;;20.24;63.41;98884.91;2291653;78;20956;-81
2021/07/12 01:12:49;;;;;;;12.95;9.63;;;;;;;19.46;64.30;98880.63;2291894;78;20948;-81
2021/07/12 01:15:50;;;;;;;12.25;10.60;;;;;;;18.80;65.50;98875.43;2291780;78;20904;-80
2021/07/12 01:18:52;;;;;;;11.65;10.55;;;;;;;18.36;66.62;98867.91;2291777;78;20987;-80
2021/07/12 01:21:54;;;;;;;12.80;11.60;;;;;;;18.01;67.88;98868.97;2268961;78;21312;-80
2021/07/12 01:24:55;;;;;;;10.32;9.43;;;;;;;17.67;69.15;98857.66;2291395;78;20987;-80
2021/07/12 01:27:56;;;;;;;9.28;8.53;;;;;;;17.47;69.85;98850.48;2291749;78;20950;-80
2021/07/12 01:30:57;;;;;;;10.35;9.38;;;;;;;17.33;70.34;98855.06;2291830;78;21316;-81
2021/07/12 01:33:58;;;;;;;10.35;9.55;;;;;;;17.22;71.25;98851.27;2291847;78;20908;-81
2021/07/12 01:36:59;;;;;;;12.00;10.90;;;;;;;17.17;71.45;98856.61;2291863;78;20939;-81
2021/07/12 01:40:00;;;;;;;12.80;9.63;;;;;;;17.13;71.90;98859.31;2292006;78;21332;-82
2021/07/12 01:43:01;;;;;;;8.90;8.05;;;;;;;17.03;71.97;98859.89;2292345;78;21361;-81
2021/07/12 01:46:02;;;;;;;12.82;9.83;;;;;;;16.92;72.47;98869.71;2291308;78;20949;-79
2021/07/12 01:49:04;;;;;;;9.33;8.50;;;;;;;16.85;73.27;98867.60;2291883;78;20967;-81
2021/07/12 01:52:05;;;;;;;9.65;8.73;;;;;;;16.75;73.03;98862.47;2291958;78;20946;-81
2021/07/12 01:55:06;;;;;;;11.22;9.70;;;;;;;16.67;73.61;98862.56;2291857;78;20963;-81
2021/07/12 01:58:07;;;;;;;10.43;9.43;;;;;;;16.62;73.69;98862.16;2291891;78;20948;-81
2021/07/12 02:01:10;;;;;;;11.22;10.15;;;;;;;16.49;73.93;98858.80;2291980;78;21008;-81
2021/07/12 02:04:10;;;;;;;11.00;9.75;;;;;;;16.41;74.15;98854.03;2291660;78;21113;-81
2021/07/12 02:07:11;;;;;;;65.45;56.92;;;;;;;16.34;74.50;98853.23;2291934;78;20928;-81
2021/07/12 02:10:12;;;;;;;32.93;15.25;;;;;;;16.28;74.90;98849.34;2291552;78;20896;-79
2021/07/12 02:13:13;;;;;;;13.45;11.95;;;;;;;16.25;75.55;98850.70;2291965;78;20940;-80
2021/07/12 02:16:14;;;;;;;10.53;9.73;;;;;;;16.21;75.50;98839.77;2291842;78;20905;-79
2021/07/12 02:19:15;;;;;;;12.03;10.72;;;;;;;16.12;75.59;98829.33;2291900;78;20904;-81
2021/07/12 02:22:16;;;;;;;12.15;11.05;;;;;;;16.07;75.88;98833.33;2291839;78;20908;-80
2021/07/12 02:25:17;;;;;;;17.05;13.40;;;;;;;16.03;76.11;98826.34;2291891;78;21348;-81
2021/07/12 02:28:18;;;;;;;14.87;12.07;;;;;;;16.08;76.49;98824.98;2291740;78;20987;-81
2021/07/12 02:34:21;;;;;;;13.88;11.18;;;;;;;16.05;76.24;98828.52;2269020;78;20973;-81
2021/07/12 02:37:22;;;;;;;12.30;9.73;;;;;;;16.02;76.49;98823.73;2291830;78;20908;-80
2021/07/12 02:40:23;;;;;;;15.00;12.28;;;;;;;16.01;76.09;98820.67;2292060;78;20932;-80
2021/07/12 02:43:24;;;;;;;12.58;11.48;;;;;;;15.99;76.46;98821.13;2292201;78;20909;-80
2021/07/12 02:46:25;;;;;;;11.95;10.63;;;;;;;16.00;76.47;98825.06;2292018;78;20944;-81
2021/07/12 02:49:26;;;;;;;12.68;10.80;;;;;;;15.93;76.29;98825.57;2287277;78;20977;-81
2021/07/12 02:52:27;;;;;;;12.75;11.40;;;;;;;15.90;76.39;98824.28;2282386;78;20950;-81
2021/07/12 02:55:28;;;;;;;12.33;10.75;;;;;;;15.89;76.52;98825.17;2282108;78;21013;-81
2021/07/12 02:58:29;;;;;;;11.30;10.08;;;;;;;15.90;76.63;98822.09;2282193;78;20918;-81
2021/07/12 03:01:30;;;;;;;10.25;9.25;;;;;;;15.96;77.06;98822.48;2282513;78;20890;-81
2021/07/12 03:04:31;;;;;;;17.17;10.30;;;;;;;16.01;76.79;98816.72;2282476;78;20993;-81
2021/07/12 03:07:33;;;;;;;11.33;10.13;;;;;;;16.01;76.80;98815.41;2281905;78;21033;-83
2021/07/12 03:10:34;;;;;;;10.78;9.63;;;;;;;16.01;76.75;98812.77;2281451;78;20882;-83
2021/07/12 03:13:35;;;;;;;11.95;10.72;;;;;;;16.06;76.57;98813.59;2281588;77;20993;-82
2021/07/12 03:16:36;;;;;;;12.45;11.35;;;;;;;16.23;76.79;98809.02;2281459;78;20907;-82
2021/07/12 03:19:37;;;;;;;13.22;10.63;;;;;;;16.23;76.79;98809.02;2281635;78;21089;-82
2021/07/12 03:22:38;;;;;;;11.63;10.55;;;;;;;16.29;76.62;98807.62;2281519;78;20910;-83
2021/07/12 03:25:39;;;;;;;12.07;10.88;;;;;;;16.31;76.42;98799.27;2281609;78;20996;-83
2021/07/12 03:28:40;;;;;;;86.12;76.97;;;;;;;16.40;76.59;98796.52;2281358;78;20965;-82
2021/07/12 03:31:41;;;;;;;15.08;13.53;;;;;;;16.47;76.49;98795.58;2282275;78;20986;-82
2021/07/12 03:34:41;;;;;;;11.10;10.13;;;;;;;16.54;76.40;98791.98;2281903;78;20902;-82
2021/07/12 03:37:43;;;;;;;16.77;11.43;;;;;;;16.65;76.52;98794.51;2282080;78;20953;-82
2021/07/12 03:40:43;;;;;;;108.45;96.32;;;;;;;16.71;76.37;98793.11;2282324;78;20952;-83
2021/07/12 03:43:44;;;;;;;17.40;15.72;;;;;;;16.80;76.38;98794.30;2281942;78;20970;-83
2021/07/12 03:46:45;;;;;;;47.00;13.18;;;;;;;16.94;76.68;98795.87;2281946;78;20957;-84
2021/07/12 03:49:46;;;;;;;13.93;12.15;;;;;;;17.10;76.60;98787.70;2266081;78;21443;-82
2021/07/12 03:52:47;;;;;;;12.80;11.45;;;;;;;17.24;76.34;98787.94;2249788;79;20920;-83
2021/07/12 03:58:51;;;;;;;14.65;11.80;;;;;;;17.65;76.48;98781.55;2220287;79;20977;-83
2021/07/12 04:01:52;;;;;;;12.13;10.65;;;;;;;17.78;75.87;98783.11;2248787;79;20884;-81
2021/07/12 04:04:53;;;;;;;13.32;11.93;;;;;;;17.90;75.62;98786.42;2248756;79;20920;-82
2021/07/12 04:07:54;;;;;;;13.20;11.12;;;;;;;17.97;75.78;98790.69;2248171;79;21019;-82
2021/07/12 04:10:55;;;;;;;20.32;11.55;;;;;;;18.15;75.92;98787.25;2248765;79;20920;-83
2021/07/12 04:13:56;;;;;;;15.93;12.58;;;;;;;18.28;75.61;98778.66;2248976;79;20948;-83
2021/07/12 04:16:57;;;;;;;13.00;11.85;;;;;;;18.39;75.29;98774.03;2248913;79;20944;-83
2021/07/12 04:19:59;;;;;;;13.40;12.25;;;;;;;18.48;75.36;98774.73;2248512;79;20967;-84
2021/07/12 04:23:00;;;;;;;17.15;12.43;;;;;;;18.48;75.77;98782.22;2248715;79;21020;-83
2021/07/12 04:26:01;;;;;;;17.30;13.03;;;;;;;18.52;75.79;98783.89;2249305;79;20956;-82
2021/07/12 04:29:02;;;;;;;24.27;13.32;;;;;;;18.56;75.61;98784.70;2248900;79;21281;-82
2021/07/12 04:32:03;;;;;;;21.07;13.83;;;;;;;18.63;75.50;98786.34;2248794;79;20979;-84
2021/07/12 04:35:04;;;;;;;19.50;13.35;;;;;;;18.70;75.47;98786.63;2249278;79;20908;-83
2021/07/12 04:38:05;;;;;;;23.22;13.55;;;;;;;18.78;75.56;98788.20;2249743;79;21000;-84
2021/07/12 04:41:06;;;;;;;16.35;14.10;;;;;;;18.83;75.68;98797.80;2249214;79;21375;-84
2021/07/12 04:44:07;;;;;;;15.28;13.72;;;;;;;18.88;75.81;98799.89;2249636;79;20916;-84
2021/07/12 04:47:08;;;;;;;17.62;13.78;;;;;;;19.01;75.85;98800.03;2249730;79;21288;-84
2021/07/12 04:50:09;;;;;;;17.70;13.00;;;;;;;19.19;75.64;98787.73;2271442;77;20999;-83
2021/07/12 04:53:10;;;;;;;17.65;13.22;;;;;;;19.29;75.61;98798.97;2290956;78;21435;-84
2021/07/12 04:56:11;;;;;;;27.30;15.38;;;;;;;19.34;75.67;98793.11;2291327;78;20913;-83
2021/07/12 04:59:24;;;;;;;33.42;16.02;;;;;;;19.35;75.69;98791.75;2291737;78;20981;-84
2021/07/12 05:02:19;;;;;;;21.90;19.45;;;;;;;19.44;75.69;98791.11;2290293;77;20976;-83
2021/07/12 05:05:20;;;;;;;140.50;24.82;;;;;;;19.56;75.37;98789.06;2290625;78;21284;-81
2021/07/12 05:08:22;;;;;;;29.07;18.82;;;;;;;19.64;75.26;98795.48;2290236;78;20896;-81
2021/07/12 05:11:23;;;;;;;19.30;16.27;;;;;;;19.77;75.05;98796.04;2290300;77;20924;-79
2021/07/12 05:14:25;;;;;;;24.72;19.20;;;;;;;19.96;75.00;98798.66;2290671;78;21359;-82
2021/07/12 05:17:26;;;;;;;19.92;17.07;;;;;;;20.17;75.02;98802.05;2290360;78;20881;-83
2021/07/12 05:20:27;;;;;;;18.05;16.23;;;;;;;20.40;74.64;98804.55;2290759;78;20919;-81
2021/07/12 05:23:28;;;;;;;20.72;16.67;;;;;;;20.58;74.25;98801.36;2291102;78;20928;-81
2021/07/12 05:26:29;;;;;;;20.30;15.48;;;;;;;20.81;74.14;98804.69;2290561;78;21427;-80
2021/07/12 05:29:30;;;;;;;16.85;15.20;;;;;;;20.98;73.43;98812.55;2291170;78;20928;-78
2021/07/12 05:32:31;;;;;;;19.98;14.18;;;;;;;21.14;73.24;98805.44;2291644;78;20889;-80
2021/07/12 05:35:32;;;;;;;20.60;14.28;;;;;;;21.27;72.98;98814.78;2291379;78;20932;-81
2021/07/12 05:38:33;;;;;;;67.35;18.45;;;;;;;21.36;72.67;98818.47;2291102;78;21244;-81
2021/07/12 05:41:34;;;;;;;22.85;14.18;;;;;;;21.79;73.08;98818.42;2291604;78;21280;-78
2021/07/12 05:44:35;;;;;;;18.67;14.80;;;;;;;22.20;71.72;98828.52;2291146;78;20941;-78
2021/07/12 05:47:36;;;;;;;36.38;16.00;;;;;;;22.41;71.63;98828.67;2291564;78;21355;-78
2021/07/12 05:50:37;;;;;;;21.48;13.85;;;;;;;22.72;71.45;98825.32;2285328;78;21021;-79
2021/07/12 05:53:38;;;;;;;16.65;13.72;;;;;;;23.01;70.42;98822.05;2281650;78;21353;-81
2021/07/12 05:56:39;;;;;;;21.02;13.13;;;;;;;23.18;70.05;98826.24;2281466;78;20930;-81
2021/07/12 05:59:40;;;;;;;15.43;12.37;;;;;;;23.34;69.18;98814.05;2280990;78;21372;-80
2021/07/12 06:02:41;;;;;;;13.60;12.30;;;;;;;23.57;68.52;98818.97;2280360;78;20930;-81
2021/07/12 06:05:42;;;;;;;14.93;12.90;;;;;;;23.88;67.14;98816.77;2280358;78;21393;-79
2021/07/12 06:08:43;;;;;;;14.13;12.78;;;;;;;24.04;65.84;98821.84;2281057;78;20966;-81
2021/07/12 06:11:44;;;;;;;15.95;12.88;;;;;;;24.05;65.64;98817.38;2281637;78;21319;-81
2021/07/12 06:14:45;;;;;;;16.85;12.47;;;;;;;24.08;65.85;98820.77;2281741;78;21306;-80
2021/07/12 06:17:46;;;;;;;14.58;12.07;;;;;;;24.17;65.44;98821.30;2281658;78;21356;-81
2021/07/12 06:20:47;;;;;;;24.43;21.75;;;;;;;24.29;64.46;98819.50;2280467;78;20970;-81
2021/07/12 06:23:48;;;;;;;14.95;13.32;;;;;;;24.28;64.06;98817.77;2280811;78;21005;-81
2021/07/12 06:26:49;;;;;;;18.25;12.47;;;;;;;24.18;64.30;98818.57;2280610;78;20953;-76
2021/07/12 06:29:50;;;;;;;13.70;12.33;;;;;;;24.19;64.59;98819.44;2280704;78;20927;-80
2021/07/12 06:32:51;;;;;;;15.48;13.10;;;;;;;24.37;64.86;98822.70;2280737;78;20970;-81
2021/07/12 06:35:52;;;;;;;14.65;13.05;;;;;;;24.66;64.69;98823.59;2280978;78;20878;-80
2021/07/12 06:38:53;;;;;;;13.55;12.20;;;;;;;24.95;63.55;98814.23;2281236;78;20910;-81
2021/07/12 06:41:54;;;;;;;15.43;12.78;;;;;;;25.34;62.08;98814.20;2281120;78;21036;-80
2021/07/12 06:44:58;;;;;;;15.93;13.08;;;;;;;25.40;61.76;98813.90;2281680;78;21140;-81
2021/07/12 06:47:59;;;;;;;13.65;12.50;;;;;;;25.72;61.37;98816.81;2281724;78;21155;-81
2021/07/12 06:51:00;;;;;;;13.83;12.35;;;;;;;26.10;60.48;98808.69;2282459;77;21007;-80
2021/07/12 06:54:01;;;;;;;14.07;12.63;;;;;;;26.12;59.22;98813.48;2281439;78;21425;-81
2021/07/12 06:57:02;;;;;;;12.28;11.18;;;;;;;26.06;59.11;98816.00;2281074;78;20954;-81
2021/07/12 07:00:03;;;;;;;13.20;12.00;;;;;;;26.31;59.53;98814.25;2281878;78;21357;-79
2021/07/12 07:03:04;;;;;;;12.13;11.12;;;;;;;26.68;59.03;98815.00;2281514;78;20994;-80
2021/07/12 07:06:05;;;;;;;13.20;11.85;;;;;;;27.22;57.29;98808.00;2281590;78;20972;-80
2021/07/12 07:09:06;;;;;;;14.93;11.95;;;;;;;27.28;57.37;98802.77;2281394;78;20965;-83
2021/07/12 07:12:07;;;;;;;37.20;33.58;;;;;;;27.42;57.48;98806.00;2281600;78;20941;-81
2021/07/12 07:15:08;;;;;;;18.95;13.08;;;;;;;27.68;57.22;98805.87;2281759;78;20975;-80
2021/07/12 07:18:09;;;;;;;13.93;12.47;;;;;;;27.93;56.34;98808.00;2281467;78;20926;-79
2021/07/12 07:21:10;;;;;;;13.50;12.23;;;;;;;27.98;56.16;98809.93;2281517;78;20949;-78
2021/07/12 07:24:11;;;;;;;14.50;13.28;;;;;;;27.63;54.49;98802.11;2281530;78;20949;-81
2021/07/12 07:27:12;;;;;;;18.80;16.87;;;;;;;27.57;55.36;98799.75;2281334;78;20978;-80
2021/07/12 07:30:13;;;;;;;17.67;16.10;;;;;;;27.54;55.37;98799.94;2281826;78;20910;-78
2021/07/12 07:33:14;;;;;;;14.07;12.78;;;;;;;27.55;55.54;98794.48;2281709;78;20982;-78
2021/07/12 07:36:16;;;;;;;14.65;12.45;;;;;;;27.39;54.28;98800.81;2281735;78;20954;-81
2021/07/12 07:42:20;;;;;;;16.65;11.70;;;;;;;27.23;55.72;98793.66;2261267;78;21013;-75
2021/07/12 07:45:21;;;;;;;13.55;11.70;;;;;;;26.99;55.86;98801.73;2280795;78;20910;-80
2021/07/12 07:48:22;;;;;;;12.73;11.53;;;;;;;26.83;55.46;98802.98;2281154;78;21345;-81
2021/07/12 07:51:22;;;;;;;14.38;12.55;;;;;;;26.85;56.31;98796.20;2273778;78;21019;-81
2021/07/12 07:54:23;;;;;;;12.10;11.00;;;;;;;26.89;55.86;98796.45;2252436;79;21002;-80
2021/07/12 07:57:24;;;;;;;14.20;11.53;;;;;;;27.17;56.25;98791.31;2263242;79;20924;-80
2021/07/12 08:00:25;;;;;;;12.28;11.03;;;;;;;27.04;55.41;98791.63;2263323;79;20912;-80
2021/07/12 08:03:26;;;;;;;14.28;10.72;;;;;;;26.74;55.84;98790.09;2250554;79;21013;-79
2021/07/12 08:06:27;;;;;;;14.73;12.07;;;;;;;26.57;56.05;98788.81;2248914;79;20949;-81
2021/07/12 08:09:28;;;;;;;18.27;11.88;;;;;;;26.76;55.52;98784.19;2248645;79;21373;-80
2021/07/12 08:12:29;;;;;;;13.30;12.07;;;;;;;26.33;55.47;98791.86;2248634;79;20947;-80
2021/07/12 08:15:30;;;;;;;11.65;10.25;;;;;;;26.26;57.04;98797.58;2249229;79;21348;-82
2021/07/12 08:18:32;;;;;;;10.63;9.73;;;;;;;26.33;54.87;98789.66;2249434;79;20940;-79
2021/07/12 08:21:33;;;;;;;12.10;10.95;;;;;;;26.14;55.52;98780.36;2249695;79;21281;-81
2021/07/12 08:24:34;;;;;;;11.80;9.25;;;;;;;26.18;56.11;98777.05;2249684;79;20959;-82
2021/07/12 08:27:35;;;;;;;11.93;10.60;;;;;;;26.55;56.27;98774.17;2249187;79;21116;-82
2021/07/12 08:30:36;;;;;;;13.88;12.50;;;;;;;26.92;54.63;98786.91;2249160;79;20922;-80
2021/07/12 08:33:37;;;;;;;12.80;10.20;;;;;;;27.10;54.60;98797.11;2249595;79;20932;-80
2021/07/12 08:36:38;;;;;;;11.80;10.80;;;;;;;27.38;54.82;98793.73;2249250;79;20928;-81
2021/07/12 08:39:39;;;;;;;12.23;11.03;;;;;;;27.56;53.91;98798.03;2249470;79;21348;-82
2021/07/12 08:42:42;;;;;;;11.50;10.40;;;;;;;27.13;53.76;98798.28;2227286;79;20896;-81
2021/07/12 08:45:43;;;;;;;10.08;9.13;;;;;;;26.89;54.36;98812.05;2249379;79;21019;-81
2021/07/12 08:48:43;;;;;;;10.18;9.38;;;;;;;27.34;54.43;98806.44;2249201;79;21283;-81
2021/07/12 08:51:44;;;;;;;11.15;10.15;;;;;;;27.72;53.42;98802.92;2260716;77;21384;-79
2021/07/12 08:54:45;;;;;;;11.73;10.43;;;;;;;28.31;52.64;98797.67;2290908;78;21311;-79
2021/07/12 08:57:46;;;;;;;10.43;9.58;;;;;;;28.45;50.58;98791.84;2291234;78;20912;-79
2021/07/12 09:00:47;;;;;;;10.48;9.70;;;;;;;28.14;51.03;98799.53;2290949;78;21291;-78
2021/07/12 09:03:51;;;;;;;10.00;8.73;;;;;;;28.45;49.99;98807.09;2291139;78;20977;-78
2021/07/12 09:06:51;;;;;;;14.13;10.32;;;;;;;28.66;50.99;98811.64;2290819;78;21364;-82
2021/07/12 09:09:52;;;;;;;9.80;8.90;;;;;;;29.05;50.77;98813.18;2290802;78;20919;-81
2021/07/12 09:12:53;;;;;;;8.93;8.23;;;;;;;29.28;49.25;98816.20;2290808;78;20928;-81
2021/07/12 09:15:54;;;;;;;10.80;9.40;;;;;;;29.22;48.64;98826.02;2291016;78;21007;-81
2021/07/12 09:18:55;;;;;;;10.43;8.70;;;;;;;28.81;48.62;98829.00;2290743;78;20900;-81
2021/07/12 09:21:56;;;;;;;10.05;9.10;;;;;;;28.88;49.76;98829.52;2291096;78;20916;-81
2021/07/12 09:24:56;;;;;;;9.85;8.85;;;;;;;29.38;49.18;98820.03;2290824;78;20987;-81
2021/07/12 09:27:57;;;;;;;9.30;8.40;;;;;;;29.47;48.61;98823.01;2291125;78;21019;-82
2021/07/12 09:30:58;;;;;;;8.38;7.47;;;;;;;29.16;48.15;98827.27;2291129;78;20912;-81
2021/07/12 09:33:59;;;;;;;10.48;9.48;;;;;;;28.65;48.31;98828.71;2291492;78;21304;-81
2021/07/12 09:37:00;;;;;;;10.48;9.20;;;;;;;28.11;50.54;98828.37;2291357;78;20968;-81
2021/07/12 09:40:03;;;;;;;11.90;9.30;;;;;;;28.21;50.22;98822.36;2291610;78;21387;-80
2021/07/12 09:43:03;;;;;;;8.80;8.08;;;;;;;28.64;49.95;98816.24;2291239;78;21349;-80
2021/07/12 09:46:05;;;;;;;14.30;8.85;;;;;;;28.73;49.81;98811.16;2290730;78;21426;-83
2021/07/12 09:49:06;;;;;;;8.63;7.85;;;;;;;29.09;49.70;98817.40;2291105;78;20988;-83
2021/07/12 09:52:07;;;;;;;10.45;9.43;;;;;;;29.66;48.45;98820.48;2287943;78;20993;-82
2021/07/12 09:55:08;;;;;;;8.93;8.08;;;;;;;29.33;48.62;98813.61;2281431;77;20978;-82
2021/07/12 09:58:09;;;;;;;9.05;8.18;;;;;;;29.72;47.99;98820.94;2281511;77;21009;-81
2021/07/12 10:01:10;;;;;;;10.15;9.25;;;;;;;29.89;47.05;98817.11;2281556;78;20965;-82
2021/07/12 10:04:11;;;;;;;11.38;10.15;;;;;;;29.59;47.90;98828.58;2282057;77;20926;-82
2021/07/12 10:07:11;;;;;;;9.88;8.95;;;;;;;29.29;47.99;98821.48;2281634;78;20938;-81
2021/07/12 10:10:16;;;;;;;11.08;9.83;;;;;;;29.34;48.25;98826.56;2281251;77;21001;-83
2021/07/12 10:13:17;;;;;;;12.10;10.68;;;;;;;29.10;48.78;98834.39;2280966;78;20891;-83
2021/07/12 10:16:18;;;;;;;12.30;10.98;;;;;;;28.45;49.77;98836.62;2281879;78;20961;-82
2021/07/12 10:19:19;;;;;;;11.65;10.68;;;;;;;28.05;50.60;98843.49;2281703;78;20879;-80
2021/07/12 10:22:20;;;;;;;12.13;10.93;;;;;;;27.69;50.77;98837.95;2280420;78;21453;-83
2021/07/12 10:25:21;;;;;;;12.43;11.22;;;;;;;27.51;52.22;98838.51;2280501;78;20981;-80
2021/07/12 10:28:22;;;;;;;12.30;10.72;;;;;;;27.70;51.51;98841.50;2281741;78;21009;-82
2021/07/12 10:31:23;;;;;;;12.13;10.88;;;;;;;27.57;51.88;98841.31;2282210;78;20978;-82
2021/07/12 10:34:24;;;;;;;18.80;11.73;;;;;;;27.36;51.90;98851.92;2281525;78;20963;-81
2021/07/12 10:37:25;;;;;;;13.38;12.07;;;;;;;27.53;52.49;98851.34;2281255;78;21377;-82
2021/07/12 10:40:26;;;;;;;13.28;11.50;;;;;;;27.75;52.18;98852.86;2281742;78;20918;-81
2021/07/12 10:43:27;;;;;;;17.07;11.03;;;;;;;28.08;51.88;98851.36;2281362;78;21624;-78
2021/07/12 10:46:29;;;;;;;11.30;10.20;;;;;;;28.26;50.60;98846.27;2280961;78;20982;-80
2021/07/12 10:49:30;;;;;;;11.57;10.37;;;;;;;28.14;50.66;98845.62;2281307;78;20915;-80
2021/07/12 10:52:31;;;;;;;12.40;11.20;;;;;;;28.12;49.90;98842.17;2268147;78;21042;-79
2021/07/12 10:55:32;;;;;;;9.60;8.75;;;;;;;28.38;49.89;98846.87;2248787;79;20967;-79
2021/07/12 10:58:35;;;;;;;11.25;10.25;;;;;;;28.18;48.94;98847.17;2249395;79;20924;-78
2021/07/12 11:01:36;;;;;;;10.13;9.08;;;;;;;28.05;49.39;98839.47;2249965;79;21264;-79
2021/07/12 11:04:37;;;;;;;10.00;9.10;;;;;;;28.17;48.86;98832.89;2249555;79;21367;-80
2021/07/12 11:07:41;;;;;;;10.40;9.50;;;;;;;28.09;49.00;98825.78;2249587;79;20988;-78
2021/07/12 11:10:44;;;;;;;10.68;9.13;;;;;;;27.65;49.50;98828.36;2249423;79;21181;-80
2021/07/12 11:13:45;;;;;;;9.70;8.80;;;;;;;27.73;49.67;98824.75;2249379;79;20960;-79
2021/07/12 11:16:46;;;;;;;8.75;8.05;;;;;;;27.28;50.13;98822.87;2249512;79;20980;-80
2021/07/12 11:19:50;;;;;;;9.88;8.85;;;;;;;26.94;49.58;98825.19;2249062;79;21765;-79
2021/07/12 11:22:51;;;;;;;9.38;8.65;;;;;;;26.49;51.03;98820.00;2249598;79;21364;-79
2021/07/12 11:25:52;;;;;;;11.53;9.03;;;;;;;26.18;51.99;98819.38;2248925;79;21023;-79
2021/07/12 11:28:53;;;;;;;10.10;9.18;;;;;;;25.85;52.68;98810.38;2249393;79;20972;-81
2021/07/12 11:31:57;;;;;;;9.88;9.00;;;;;;;25.55;53.05;98806.07;2249397;79;20940;-78
2021/07/12 11:34:58;;;;;;;10.03;9.00;;;;;;;25.75;53.87;98805.11;2249543;79;20952;-80
2021/07/12 11:37:59;;;;;;;9.88;9.00;;;;;;;25.68;53.41;98807.22;2249476;79;20903;-79
2021/07/12 11:41:00;;;;;;;9.48;8.58;;;;;;;25.48;53.93;98808.65;2249754;79;20996;-80
2021/07/12 11:44:01;;;;;;;11.63;8.78;;;;;;;25.44;54.28;98807.07;2249206;79;21276;-79
2021/07/12 11:47:02;;;;;;;9.83;8.73;;;;;;;25.32;53.93;98804.52;2249160;79;21007;-78
2021/07/12 11:50:03;;;;;;;10.23;9.10;;;;;;;25.05;54.46;98808.02;2249347;79;21315;-79
2021/07/12 11:53:05;;;;;;;9.68;8.88;;;;;;;24.79;54.83;98806.53;2270205;77;20994;-79
2021/07/12 11:56:06;;;;;;;10.30;9.30;;;;;;;24.60;55.41;98802.52;2290900;78;21023;-79
2021/07/12 11:59:07;;;;;;;12.65;10.10;;;;;;;24.54;56.52;98799.27;2291345;78;21353;-78
2021/07/12 12:02:08;;;;;;;14.03;11.88;;;;;;;24.39;58.48;98805.69;2291510;78;20921;-82
2021/07/12 12:05:09;;;;;;;21.85;15.80;;;;;;;24.46;59.57;98804.95;2291627;78;21012;-81
2021/07/12 12:08:11;;;;;;;20.92;18.92;;;;;;;24.36;59.71;98799.16;2291670;78;21376;-82
2021/07/12 12:11:14;;;;;;;24.25;21.20;;;;;;;24.38;61.03;98793.28;2291986;78;20980;-82
2021/07/12 12:14:16;;;;;;;20.75;16.73;;;;;;;24.37;63.06;98792.02;2292291;78;21003;-80
2021/07/12 12:17:17;;;;;;;23.60;21.07;;;;;;;24.41;62.98;98793.61;2292191;78;20909;-81
2021/07/12 12:20:19;;;;;;;18.55;16.67;;;;;;;24.37;63.58;98797.35;2292106;78;20956;-80
2021/07/12 12:23:20;;;;;;;19.15;17.25;;;;;;;24.46;63.58;98798.27;2292026;77;21015;-80
2021/07/12 12:26:26;;;;;;;18.65;14.38;;;;;;;24.53;63.64;98785.52;2292278;78;20940;-80
2021/07/12 12:29:23;;;;;;;16.15;13.55;;;;;;;24.14;61.68;98780.97;2291380;77;21019;-77
2021/07/12 12:32:27;;;;;;;15.58;14.05;;;;;;;24.01;63.84;98794.44;2291686;78;20916;-79
2021/07/12 12:35:31;;;;;;;12.15;11.05;;;;;;;24.15;64.00;98786.70;2291455;78;20916;-81
2021/07/12 12:38:32;;;;;;;13.13;11.83;;;;;;;24.22;63.92;98785.97;2291304;78;20912;-80
2021/07/12 12:41:33;;;;;;;13.83;12.58;;;;;;;24.29;63.76;98782.16;2290958;78;21155;-80
2021/07/12 12:44:36;;;;;;;13.40;12.10;;;;;;;24.46;63.96;98774.27;2291368;78;20892;-78
2021/07/12 12:47:36;;;;;;;16.05;13.18;;;;;;;24.59;63.51;98779.44;2291667;78;20905;-78
2021/07/12 12:50:37;;;;;;;14.73;13.08;;;;;;;24.69;63.53;98780.74;2291572;78;20948;-79
2021/07/12 12:53:38;;;;;;;17.67;13.40;;;;;;;24.93;63.14;98777.39;2285638;77;20969;-80
2021/07/12 12:56:39;;;;;;;15.13;13.53;;;;;;;25.07;62.63;98777.62;2282391;78;21018;-79
2021/07/12 12:59:40;;;;;;;13.25;11.85;;;;;;;25.13;62.36;98775.60;2281676;78;20942;-79
2021/07/12 13:02:41;;;;;;;12.47;11.38;;;;;;;25.23;62.87;98775.11;2281453;78;20942;-79
2021/07/12 13:05:42;;;;;;;13.35;12.00;;;;;;;25.19;62.70;98778.88;2281499;78;21330;-81
2021/07/12 13:08:43;;;;;;;12.55;11.18;;;;;;;25.10;62.63;98780.63;2281974;78;20949;-80
2021/07/12 13:11:45;;;;;;;13.15;11.65;;;;;;;24.92;62.53;98781.47;2282263;78;21290;-81
2021/07/12 13:14:46;;;;;;;12.95;11.43;;;;;;;24.73;63.10;98777.46;2282085;78;20894;-80
2021/07/12 13:17:47;;;;;;;15.32;13.45;;;;;;;24.77;63.56;98782.59;2282131;78;20902;-79
2021/07/12 13:20:48;;;;;;;17.02;13.48;;;;;;;24.82;64.03;98784.17;2281769;78;20929;-81
2021/07/12 13:23:49;;;;;;;17.07;14.25;;;;;;;24.93;63.98;98781.86;2281639;78;20954;-80
2021/07/12 13:26:49;;;;;;;13.98;12.58;;;;;;;25.00;63.51;98782.87;2282316;78;21016;-81
2021/07/12 13:29:50;;;;;;;15.48;11.80;;;;;;;24.99;63.38;98789.62;2282497;78;20953;-79
2021/07/12 13:32:52;;;;;;;14.65;13.18;;;;;;;24.86;62.45;98795.11;2282365;78;20969;-81
2021/07/12 13:35:56;;;;;;;16.05;13.55;;;;;;;24.74;63.56;98799.21;2282407;78;20934;-80
2021/07/12 13:38:56;;;;;;;71.82;17.65;;;;;;;24.76;63.48;98804.87;2281701;78;20990;-80
2021/07/12 13:41:58;;;;;;;18.73;12.55;;;;;;;24.86;63.66;98805.78;2281875;78;20922;-81
2021/07/12 13:44:58;;;;;;;18.75;13.28;;;;;;;24.99;62.51;98802.97;2282247;78;20914;-81
2021/07/12 13:47:59;;;;;;;12.68;11.38;;;;;;;25.04;62.29;98799.61;2282729;78;20949;-79
2021/07/12 13:51:00;;;;;;;13.35;11.60;;;;;;;24.97;61.93;98807.48;2282825;78;20927;-80
2021/07/12 13:54:04;;;;;;;12.33;11.05;;;;;;;24.92;62.14;98807.70;2261793;77;20935;-80
2021/07/12 13:57:05;;;;;;;14.80;11.90;;;;;;;24.95;62.63;98812.03;2250603;79;21027;-82
2021/07/12 14:00:06;;;;;;;13.28;11.95;;;;;;;24.89;62.29;98810.52;2249717;79;20959;-81
2021/07/12 14:03:07;;;;;;;13.18;11.95;;;;;;;24.58;62.81;98795.05;2251088;79;20905;-81